Doha, Qatar

8:07 AM AST on August 25, 2016 (GMT +0300)
Doha International | | Change Station

Elev 33 ft 25.26 °N, 51.57 °E | Updated 7 minutes ago

Clear
Clear
97 °F
Feels Like 122 °F
N
6
Wind Variable Wind from South

Today
High -- | Low -- °F
--% Chance of Precip.
Yesterday
High -- | Low -- °F
Precip. -- in
Pressure 29.62 in
Visibility -9999.0 miles
Clouds
Heat Index 122 °F
Dew Point 82 °F
Humidity 63%
Rainfall 0.00 in
Snow Depth Not available.
5:11 AM 5:59 PM
Waning Gibbous, 49% visible
METAR OTBD 250500Z 17005KT 140V230 CAVOK 36/28 Q1003 NOSIG
Pressure 29.62 in
Visibility -9999.0 miles
Clouds
Heat Index 122 °F
Dew Point 82 °F
Humidity 63%
Rainfall 0.00 in
Snow Depth Not available.
5:11 AM 5:59 PM
Waning Gibbous, 49% visible
METAR OTBD 250500Z 17005KT 140V230 CAVOK 36/28 Q1003 NOSIG

10-Day Weather Forecast

No radar image for this location.
×

Almanac

Astronomy

Aug. 25, 2016 Rise Set
Actual Time
Civil Twilight
Nautical Twilight
Astronomical Twilight
Moon
Length of Visible Light
Length of Day
Tomorrow will be .
, % of the Moon is Illuminated

Today's Extremes

Country Highs Country Lows

Community

WunderPhotos

Upload Photos

1,934,799 photos uploaded!

WunderBlog® & News

Nearby

Air Quality

  Air Quality AQ Index Pollutant
Not available.

Snow Depth

Station Depth Elevation

Earthquake Activity

City Distance Mag. Time & Date
Minimum magnitude displayed is 2.5.

Coastal Water Temperatures

Place Temperature

Stations

Nearby Weather Stations

Station Location Temp. Windchill Dew Point Humidity Wind Precip. Elev Updated Type